createdAt,value
2018-08-06T00:00:19.313Z,64.58
2018-08-06T00:01:00.130Z,64.48
2018-08-06T00:01:40.900Z,64.68
2018-08-06T00:02:21.717Z,64.39
2018-08-06T00:03:02.491Z,64.48
2018-08-06T00:03:43.318Z,64.58
2018-08-06T00:04:24.128Z,64.81
2018-08-06T00:05:04.890Z,64.61
2018-08-06T00:05:45.715Z,64.71
2018-08-06T00:06:26.512Z,65.17
2018-08-06T00:07:07.258Z,65.56
2018-08-06T00:07:48.062Z,66.44
2018-08-06T00:08:28.824Z,66.05
2018-08-06T00:09:09.648Z,66.05
2018-08-06T00:09:50.448Z,65.46
2018-08-06T00:10:31.268Z,65.75
2018-08-06T00:11:12.075Z,65.26
2018-08-06T00:11:52.929Z,65.17
2018-08-06T00:12:33.731Z,64.87
2018-08-06T00:13:14.476Z,65.36
2018-08-06T00:13:55.292Z,65.53
2018-08-06T00:14:36.164Z,65.26
2018-08-06T00:15:16.883Z,64.97
2018-08-06T00:15:57.642Z,65.36
2018-08-06T00:16:38.416Z,65.17
2018-08-06T00:17:19.241Z,64.87
2018-08-06T00:18:00.017Z,65.07
2018-08-06T00:18:40.879Z,65.07
2018-08-06T00:19:21.662Z,64.78
2018-08-06T00:20:02.406Z,64.51
2018-08-06T00:20:43.181Z,64.9
2018-08-06T00:21:23.942Z,64.61
2018-08-06T00:22:04.813Z,64.81
2018-08-06T00:22:45.611Z,64.61
2018-08-06T00:23:26.399Z,64.9
2018-08-06T00:24:07.227Z,64.81
2018-08-06T00:24:48.026Z,64.9
2018-08-06T00:25:28.852Z,65.39
2018-08-06T00:26:09.649Z,65.36
2018-08-06T00:26:50.444Z,66.05
2018-08-06T00:27:31.218Z,66.14
2018-08-06T00:28:12.042Z,66.34
2018-08-06T00:28:52.879Z,66.34
2018-08-06T00:29:35.308Z,66.63
2018-08-06T00:30:16.071Z,66.44
2018-08-06T00:30:56.847Z,66.53
2018-08-06T00:31:37.673Z,65.95
2018-08-06T00:32:18.413Z,65.75
2018-08-06T00:32:59.168Z,66.05
2018-08-06T00:33:39.944Z,66.05
2018-08-06T00:34:20.712Z,66.17
2018-08-06T00:35:01.573Z,65.59
2018-08-06T00:35:42.413Z,65.49
2018-08-06T00:36:23.262Z,65.3
2018-08-06T00:37:04.003Z,65.2
2018-08-06T00:37:44.760Z,65.3
2018-08-06T00:38:25.527Z,65.69
2018-08-06T00:39:06.390Z,65.49
2018-08-06T00:39:47.216Z,65.39
2018-08-06T00:40:28.025Z,65.39
2018-08-06T00:41:08.845Z,65.69
2018-08-06T00:41:49.667Z,65.3
2018-08-06T00:42:30.511Z,65.14
2018-08-06T00:43:11.267Z,64.84
2018-08-06T00:43:51.993Z,65.1
2018-08-06T00:44:32.842Z,65.1
2018-08-06T00:45:13.630Z,65.2
2018-08-06T00:45:54.365Z,65.1
2018-08-06T00:46:35.157Z,65.2
2018-08-06T00:47:15.896Z,65.2
2018-08-06T00:47:56.738Z,65.2
2018-08-06T00:48:37.512Z,65.1
2018-08-06T00:49:18.299Z,64.65
2018-08-06T00:49:59.188Z,64.55
2018-08-06T00:50:40.024Z,64.81
2018-08-06T00:51:20.887Z,64.65
2018-08-06T00:52:01.743Z,65.23
2018-08-06T00:52:42.526Z,64.61
2018-08-06T00:53:23.474Z,64.84
2018-08-06T00:54:04.276Z,64.75
2018-08-06T00:54:45.142Z,65.23
2018-08-06T00:55:26.059Z,65.33
2018-08-06T00:56:06.890Z,64.55
2018-08-06T00:56:47.717Z,64.94
2018-08-06T00:57:28.587Z,66.11
2018-08-06T00:58:09.561Z,66.17
2018-08-06T00:58:50.433Z,66.31
2018-08-06T00:59:31.188Z,65.92
2018-08-06T01:00:11.967Z,65.53
2018-08-06T01:00:52.770Z,65.23
2018-08-06T01:01:33.618Z,65.63
2018-08-06T01:02:14.415Z,65.63
2018-08-06T01:02:55.206Z,65.63
2018-08-06T01:03:35.991Z,66.11
2018-08-06T01:04:16.811Z,67.09
2018-08-06T01:04:57.660Z,66.89
2018-08-06T01:05:38.497Z,67.74
2018-08-06T01:06:19.271Z,69.2
2018-08-06T01:07:00.097Z,70.37
2018-08-06T01:07:40.867Z,70.14
2018-08-06T01:08:21.692Z,69.95
2018-08-06T01:09:02.516Z,69.46
2018-08-06T01:09:43.258Z,69.17
2018-08-06T01:10:24.044Z,68.87
2018-08-06T01:11:04.826Z,68.77
2018-08-06T01:11:45.672Z,68.32
2018-08-06T01:12:26.496Z,67.71
2018-08-06T01:13:07.300Z,67.8
2018-08-06T01:13:48.093Z,68
2018-08-06T01:14:28.867Z,67.8
2018-08-06T01:15:09.732Z,68
2018-08-06T01:15:50.464Z,68.49
2018-08-06T01:16:31.242Z,68.49
2018-08-06T01:17:11.968Z,68.68
2018-08-06T01:17:52.779Z,67.71
2018-08-06T01:18:33.560Z,67.71
2018-08-06T01:19:14.346Z,68
2018-08-06T01:19:55.125Z,67.83
2018-08-06T01:20:35.928Z,67.32
2018-08-06T01:21:16.763Z,67.83
2018-08-06T01:21:57.586Z,67.25
2018-08-06T01:22:38.395Z,66.96
2018-08-06T01:23:19.206Z,67.25
2018-08-06T01:23:59.988Z,67.25
2018-08-06T01:24:40.755Z,66.76
2018-08-06T01:25:21.516Z,67.64
2018-08-06T01:26:02.293Z,66.86
2018-08-06T01:26:43.111Z,67.44
2018-08-06T01:27:23.929Z,67.35
2018-08-06T01:28:04.790Z,66.66
2018-08-06T01:28:45.535Z,66.76
2018-08-06T01:29:26.298Z,66.66
2018-08-06T01:30:07.117Z,66.96
2018-08-06T01:30:47.861Z,66.66
2018-08-06T01:31:28.708Z,67.05
2018-08-06T01:32:09.471Z,66.86
2018-08-06T01:32:50.237Z,66.86
2018-08-06T01:33:31.085Z,66.86
2018-08-06T01:34:11.936Z,67.15
2018-08-06T01:34:52.714Z,67.25
2018-08-06T01:35:33.491Z,66.86
2018-08-06T01:36:14.296Z,67.35
2018-08-06T01:36:55.051Z,67.44
2018-08-06T01:37:35.853Z,67.15
2018-08-06T01:38:16.688Z,66.76
2018-08-06T01:38:57.536Z,66.66
2018-08-06T01:39:38.347Z,67.25
2018-08-06T01:40:19.099Z,65.98
2018-08-06T01:40:59.956Z,67.05
2018-08-06T01:41:40.741Z,66.76
2018-08-06T01:42:21.547Z,67.15
2018-08-06T01:43:02.289Z,66.56
2018-08-06T01:43:43.069Z,66.76
2018-08-06T01:44:23.912Z,66.56
2018-08-06T01:45:04.720Z,66.47
2018-08-06T01:45:45.584Z,67.05
2018-08-06T01:46:26.293Z,65.69
2018-08-06T01:47:07.105Z,66.08
2018-08-06T01:47:47.854Z,66.27
2018-08-06T01:48:28.737Z,66.47
2018-08-06T01:49:09.531Z,65.88
2018-08-06T01:49:50.305Z,66.37
2018-08-06T01:50:31.138Z,66.76
2018-08-06T01:51:11.917Z,66.27
2018-08-06T01:51:52.713Z,66.47
2018-08-06T01:52:33.523Z,65.98
2018-08-06T01:53:14.265Z,66.08
2018-08-06T01:53:55.109Z,65.78
2018-08-06T01:54:35.891Z,65.88
2018-08-06T01:55:16.650Z,66.08
2018-08-06T01:55:57.489Z,66.37
2018-08-06T01:56:38.275Z,66.17
2018-08-06T01:57:19.102Z,65.78
2018-08-06T01:57:59.927Z,65.39
2018-08-06T01:58:40.755Z,65.49
2018-08-06T01:59:21.564Z,65.49
2018-08-06T02:00:02.376Z,64.51
2018-08-06T02:00:43.245Z,64.22
2018-08-06T02:01:24.038Z,64.51
2018-08-06T02:02:04.804Z,65.2
2018-08-06T02:02:45.606Z,65.2
2018-08-06T02:03:26.456Z,64.81
2018-08-06T02:04:07.306Z,65.04
2018-08-06T02:04:48.153Z,65.1
2018-08-06T02:05:28.985Z,64.9
2018-08-06T02:06:09.755Z,65.1
2018-08-06T02:06:50.571Z,64.51
2018-08-06T02:07:31.361Z,64.71
2018-08-06T02:08:12.139Z,63.73
2018-08-06T02:08:52.929Z,63.83
2018-08-06T02:09:33.685Z,63.05
2018-08-06T02:10:14.535Z,62.95
2018-08-06T02:10:55.303Z,62.76
2018-08-06T02:11:36.067Z,62.76
2018-08-06T02:12:16.858Z,62.44
2018-08-06T02:12:57.722Z,62.82
2018-08-06T02:13:38.530Z,63.02
2018-08-06T02:14:19.375Z,63.21
2018-08-06T02:15:00.133Z,63.12
2018-08-06T02:15:40.982Z,63.21
2018-08-06T02:16:21.743Z,62.82
2018-08-06T02:17:02.569Z,63.7
2018-08-06T02:17:43.341Z,63.51
2018-08-06T02:18:24.108Z,63.41
2018-08-06T02:19:04.935Z,63.51
2018-08-06T02:19:45.729Z,63.9
2018-08-06T02:20:26.555Z,64
2018-08-06T02:21:07.378Z,63.7
2018-08-06T02:21:48.135Z,63.9
2018-08-06T02:22:28.923Z,64.19
2018-08-06T02:23:09.689Z,64
2018-08-06T02:23:50.493Z,64
2018-08-06T02:24:31.294Z,63.8
2018-08-06T02:25:12.057Z,64
2018-08-06T02:25:52.924Z,63.9
2018-08-06T02:26:33.757Z,63.21
2018-08-06T02:27:14.588Z,63.21
2018-08-06T02:27:55.409Z,63.51
2018-08-06T02:28:36.163Z,63.12
2018-08-06T02:29:17.042Z,63.02
2018-08-06T02:29:57.845Z,63.41
2018-08-06T02:30:38.621Z,63.8
2018-08-06T02:31:19.392Z,63.8
2018-08-06T02:32:00.199Z,63.7
2018-08-06T02:32:41.026Z,63.31
2018-08-06T02:33:21.818Z,63.9
2018-08-06T02:34:02.565Z,64.09
2018-08-06T02:34:43.449Z,64.09
2018-08-06T02:35:24.271Z,64.19
2018-08-06T02:36:05.065Z,64.22
2018-08-06T02:36:45.865Z,64.03
2018-08-06T02:37:26.663Z,64.03
2018-08-06T02:38:07.437Z,63.54
2018-08-06T02:38:48.262Z,63.83
2018-08-06T02:39:29.093Z,63.44
2018-08-06T02:40:09.924Z,63.44
2018-08-06T02:40:50.721Z,63.64
2018-08-06T02:41:31.496Z,63.73
2018-08-06T02:42:12.356Z,63.73
2018-08-06T02:42:53.127Z,63.44
2018-08-06T02:43:33.925Z,63.38
2018-08-06T02:44:14.740Z,63.34
2018-08-06T02:44:55.594Z,63.15
2018-08-06T02:45:36.445Z,63.34
2018-08-06T02:46:17.356Z,63.34
2018-08-06T02:46:58.089Z,63.24
2018-08-06T02:47:38.915Z,63.34
2018-08-06T02:48:19.707Z,63.15
2018-08-06T02:49:00.462Z,63.24
2018-08-06T02:49:41.297Z,63.34
2018-08-06T02:50:22.077Z,63.34
2018-08-06T02:51:02.837Z,63.44
2018-08-06T02:51:43.663Z,63.83
2018-08-06T02:52:24.433Z,63.73
2018-08-06T02:53:05.266Z,63.54
2018-08-06T02:53:46.018Z,63.44
2018-08-06T02:54:26.763Z,63.54
2018-08-06T02:55:07.539Z,63.73
2018-08-06T02:55:48.299Z,63.44
2018-08-06T02:56:29.134Z,63.64
2018-08-06T02:57:10.009Z,63.34
2018-08-06T02:57:50.801Z,63.64
2018-08-06T02:58:31.575Z,63.67
2018-08-06T02:59:12.394Z,63.44
2018-08-06T02:59:53.159Z,63.34
2018-08-06T03:00:33.923Z,63.48
2018-08-06T03:01:14.702Z,63.44
2018-08-06T03:01:55.482Z,63.44
2018-08-06T03:02:36.331Z,63.83
2018-08-06T03:03:17.120Z,63.73
2018-08-06T03:03:57.886Z,63.93
2018-08-06T03:04:38.677Z,64.03
2018-08-06T03:05:19.520Z,64.12
2018-08-06T03:06:00.376Z,63.64
2018-08-06T03:06:41.196Z,64.03
2018-08-06T03:07:21.978Z,64.03
2018-08-06T03:08:02.821Z,63.93
2018-08-06T03:08:43.641Z,64.06
2018-08-06T03:09:24.451Z,63.96
2018-08-06T03:10:05.288Z,64.03
2018-08-06T03:10:46.150Z,63.83
2018-08-06T03:11:27.031Z,63.44
2018-08-06T03:12:07.810Z,63.64
2018-08-06T03:12:48.667Z,63.15
2018-08-06T03:13:29.433Z,63.48
2018-08-06T03:14:10.192Z,63.83
2018-08-06T03:14:50.962Z,63.54
2018-08-06T03:15:31.812Z,63.87
2018-08-06T03:16:12.617Z,63.34
2018-08-06T03:16:53.425Z,63.15
2018-08-06T03:17:34.167Z,63.15
2018-08-06T03:18:15.005Z,63.24
2018-08-06T03:18:55.848Z,63.44
2018-08-06T03:19:36.652Z,62.85
2018-08-06T03:20:17.457Z,62.85
2018-08-06T03:20:58.249Z,63.05
2018-08-06T03:21:39.047Z,63.15
2018-08-06T03:22:19.866Z,63.44
2018-08-06T03:23:00.698Z,63.15
2018-08-06T03:23:41.515Z,63.15
2018-08-06T03:24:22.311Z,63.34
2018-08-06T03:25:03.108Z,62.85
2018-08-06T03:25:43.955Z,62.6
2018-08-06T03:26:24.763Z,63.18
2018-08-06T03:27:05.496Z,62.66
2018-08-06T03:27:46.249Z,63.05
2018-08-06T03:28:27.074Z,62.76
2018-08-06T03:29:07.917Z,63.05
2018-08-06T03:29:48.743Z,62.37
2018-08-06T03:30:29.580Z,63.15
2018-08-06T03:31:10.428Z,62.56
2018-08-06T03:31:51.265Z,62.47
2018-08-06T03:32:32.012Z,62.27
2018-08-06T03:33:12.843Z,62.37
2018-08-06T03:33:53.685Z,62.18
2018-08-06T03:34:34.492Z,62.27
2018-08-06T03:35:15.306Z,62.47
2018-08-06T03:35:56.136Z,62.18
2018-08-06T03:36:36.978Z,62.47
2018-08-06T03:37:17.727Z,62.47
2018-08-06T03:37:58.510Z,62.37
2018-08-06T03:38:39.394Z,62.18
2018-08-06T03:39:20.171Z,62.27
2018-08-06T03:40:00.926Z,62.66
2018-08-06T03:40:41.680Z,62.27
2018-08-06T03:41:22.489Z,62.47
2018-08-06T03:42:03.307Z,62.66
2018-08-06T03:42:44.097Z,62.56
2018-08-06T03:43:24.863Z,61.79
2018-08-06T03:44:05.694Z,62.66
2018-08-06T03:44:46.537Z,62.47
2018-08-06T03:45:27.349Z,62.85
2018-08-06T03:46:08.161Z,62.66
2018-08-06T03:46:48.892Z,62.66
2018-08-06T03:47:29.680Z,62.76
2018-08-06T03:48:10.470Z,62.76
2018-08-06T03:48:51.305Z,62.18
2018-08-06T03:49:32.159Z,62.27
2018-08-06T03:50:12.943Z,62.27
2018-08-06T03:50:53.695Z,62.85
2018-08-06T03:51:34.544Z,62.76
2018-08-06T03:52:15.356Z,62.76
2018-08-06T03:52:56.148Z,62.27
2018-08-06T03:53:36.948Z,62.18
2018-08-06T03:54:17.703Z,62.18
2018-08-06T03:54:58.542Z,62.18
2018-08-06T03:55:39.348Z,62.18
2018-08-06T03:56:20.164Z,61.88
2018-08-06T03:57:00.946Z,62.18
2018-08-06T03:57:41.716Z,62.21
2018-08-06T03:58:22.473Z,62.08
2018-08-06T03:59:03.279Z,61.59
2018-08-06T03:59:44.117Z,61.69
2018-08-06T04:00:24.897Z,62.27
2018-08-06T04:01:05.662Z,62.76
2018-08-06T04:01:46.518Z,62.76
2018-08-06T04:02:27.289Z,62.27
2018-08-06T04:03:08.101Z,62.08
2018-08-06T04:03:48.859Z,62.18
2018-08-06T04:04:29.596Z,62.01
2018-08-06T04:05:10.342Z,62.08
2018-08-06T04:05:51.143Z,61.98
2018-08-06T04:06:31.972Z,62.08
2018-08-06T04:07:12.798Z,61.79
2018-08-06T04:07:53.587Z,61.82
2018-08-06T04:08:34.358Z,62.11
2018-08-06T04:09:15.196Z,61.88
2018-08-06T04:09:56.009Z,61.69
2018-08-06T04:10:36.801Z,62.01
2018-08-06T04:11:17.600Z,61.98
2018-08-06T04:11:58.418Z,61.69
2018-08-06T04:12:39.289Z,61.88
2018-08-06T04:13:20.032Z,61.98
2018-08-06T04:14:00.854Z,61.82
2018-08-06T04:14:41.735Z,61.91
2018-08-06T04:15:22.506Z,61.82
2018-08-06T04:16:03.351Z,61.69
2018-08-06T04:16:44.090Z,61.59
2018-08-06T04:17:24.882Z,61.88
2018-08-06T04:18:05.731Z,61.79
2018-08-06T04:18:46.516Z,61.49
2018-08-06T04:19:27.268Z,61.59
2018-08-06T04:20:08.040Z,61.59
2018-08-06T04:20:48.793Z,61.69
2018-08-06T04:21:29.647Z,61.49
2018-08-06T04:22:10.469Z,61.88
2018-08-06T04:22:51.312Z,61.4
2018-08-06T04:23:34.063Z,61.59
2018-08-06T04:24:14.804Z,61.59
2018-08-06T04:24:55.625Z,61.49
2018-08-06T04:25:36.454Z,61.2
2018-08-06T04:26:17.192Z,61.69
2018-08-06T04:26:57.966Z,61.4
2018-08-06T04:27:38.812Z,61.69
2018-08-06T04:28:19.608Z,61.98
2018-08-06T04:29:00.438Z,61.49
2018-08-06T04:29:41.203Z,61.59
2018-08-06T04:30:22.046Z,61.59
2018-08-06T04:31:02.833Z,61.59
2018-08-06T04:31:43.650Z,61.88
2018-08-06T04:32:24.446Z,61.79
2018-08-06T04:33:05.286Z,61.59
2018-08-06T04:33:46.062Z,61.69
2018-08-06T04:34:26.946Z,61.69
2018-08-06T04:35:07.721Z,61.79
2018-08-06T04:35:48.514Z,61.88
2018-08-06T04:36:29.336Z,61.69
2018-08-06T04:37:10.178Z,61.79
2018-08-06T04:37:51.062Z,61.49
2018-08-06T04:38:31.889Z,61.82
2018-08-06T04:39:12.634Z,61.69
2018-08-06T04:39:53.380Z,61.82
2018-08-06T04:40:34.192Z,61.69
2018-08-06T04:41:15.019Z,61.69
2018-08-06T04:41:55.785Z,61.69
2018-08-06T04:42:36.612Z,61.79
2018-08-06T04:43:17.415Z,61.79
2018-08-06T04:43:58.248Z,61.88
2018-08-06T04:44:39.077Z,61.88
2018-08-06T04:45:19.889Z,61.69
2018-08-06T04:46:00.661Z,61.69
2018-08-06T04:46:41.428Z,61.69
2018-08-06T04:47:22.237Z,61.69
2018-08-06T04:48:03.055Z,61.69
2018-08-06T04:48:43.826Z,61.69
2018-08-06T04:49:24.635Z,61.69
2018-08-06T04:50:05.478Z,61.69
2018-08-06T04:50:46.310Z,61.88
2018-08-06T04:51:27.076Z,61.59
2018-08-06T04:52:07.879Z,61.69
2018-08-06T04:52:48.722Z,61.69
2018-08-06T04:53:29.574Z,61.69
2018-08-06T04:54:10.307Z,61.69
2018-08-06T04:54:51.156Z,61.79
2018-08-06T04:55:31.948Z,61.69
2018-08-06T04:56:12.763Z,61.79
2018-08-06T04:56:53.574Z,61.62
2018-08-06T04:57:34.408Z,61.79
2018-08-06T04:58:15.213Z,61.72
2018-08-06T04:59:03.604Z,61.82
2018-08-06T04:59:44.433Z,61.79
2018-08-06T05:00:25.168Z,61.72
2018-08-06T05:01:05.990Z,61.69
2018-08-06T05:01:46.740Z,61.69
2018-08-06T05:02:27.523Z,61.69
2018-08-06T05:03:08.295Z,61.69
2018-08-06T05:03:49.114Z,61.59
2018-08-06T05:04:29.942Z,61.79
2018-08-06T05:05:10.750Z,61.3
2018-08-06T05:05:51.484Z,61.69
2018-08-06T05:06:32.306Z,61.79
2018-08-06T05:07:13.859Z,61.69
2018-08-06T05:07:53.919Z,61.69
2018-08-06T05:08:34.795Z,61.88
2018-08-06T05:09:15.571Z,61.69
2018-08-06T05:09:56.404Z,61.59
2018-08-06T05:10:37.257Z,61.69
2018-08-06T05:11:18.019Z,61.69
2018-08-06T05:11:58.820Z,61.69
2018-08-06T05:12:39.659Z,61.59
2018-08-06T05:13:20.488Z,61.88
2018-08-06T05:14:01.336Z,61.69
2018-08-06T05:14:42.172Z,61.69
2018-08-06T05:15:23.029Z,61.59
2018-08-06T05:16:03.817Z,61.59
2018-08-06T05:16:44.607Z,61.69
2018-08-06T05:17:25.394Z,61.2
2018-08-06T05:18:06.238Z,61.3
2018-08-06T05:18:47.052Z,61.2
2018-08-06T05:19:27.855Z,61.59
2018-08-06T05:20:08.629Z,61.79
2018-08-06T05:20:52.440Z,61.49
2018-08-06T05:21:33.338Z,61.2
2018-08-06T05:22:14.109Z,61.49
2018-08-06T05:22:54.953Z,61.79
2018-08-06T05:23:35.816Z,61.52
2018-08-06T05:24:16.619Z,60.91
2018-08-06T05:24:57.349Z,61
2018-08-06T05:25:38.074Z,60.71
2018-08-06T05:26:18.895Z,60.71
2018-08-06T05:26:59.763Z,61.1
2018-08-06T05:27:40.564Z,61
2018-08-06T05:28:21.376Z,61.1
2018-08-06T05:29:02.214Z,61.1
2018-08-06T05:29:43.017Z,60.32
2018-08-06T05:30:23.907Z,60.16
2018-08-06T05:31:04.667Z,60.52
2018-08-06T05:31:45.443Z,60.22
2018-08-06T05:32:26.186Z,60.52
2018-08-06T05:33:06.981Z,60.03
2018-08-06T05:33:47.854Z,60.03
2018-08-06T05:34:28.681Z,59.93
2018-08-06T05:35:09.505Z,60.13
2018-08-06T05:35:50.264Z,60.32
2018-08-06T05:36:31.043Z,59.83
2018-08-06T05:37:11.893Z,60.22
2018-08-06T05:37:52.728Z,60.22
2018-08-06T05:38:33.485Z,60.32
2018-08-06T05:39:14.272Z,60.32
2018-08-06T05:39:55.111Z,60.13
2018-08-06T05:40:35.912Z,60.22
2018-08-06T05:41:16.743Z,60.13
2018-08-06T05:42:00.034Z,60.13
2018-08-06T05:42:41.413Z,60.13
2018-08-06T05:43:22.230Z,59.93
2018-08-06T05:44:03.065Z,59.93
2018-08-06T05:44:43.857Z,60.03
2018-08-06T05:45:24.603Z,59.93
2018-08-06T05:46:05.402Z,60.03
2018-08-06T05:46:46.272Z,59.93
2018-08-06T05:47:27.106Z,59.74
2018-08-06T05:48:07.889Z,60.03
2018-08-06T05:48:48.592Z,59.83
2018-08-06T05:49:29.363Z,59.93
2018-08-06T05:50:10.137Z,59.83
2018-08-06T05:50:50.953Z,60.03
2018-08-06T05:51:31.767Z,59.54
2018-08-06T05:52:12.626Z,59.74
2018-08-06T05:52:53.364Z,60.13
2018-08-06T05:53:34.165Z,59.44
2018-08-06T05:54:14.978Z,60.03
2018-08-06T05:54:55.730Z,59.93
2018-08-06T05:55:36.527Z,60.03
2018-08-06T05:56:17.299Z,59.64
2018-08-06T05:56:58.112Z,60.13
2018-08-06T05:57:38.924Z,59.44
2018-08-06T05:58:19.865Z,59.15
2018-08-06T05:59:00.518Z,59.83
2018-08-06T05:59:41.372Z,59.54
2018-08-06T06:00:22.207Z,59.54
2018-08-06T06:01:03.039Z,59.54
2018-08-06T06:01:43.818Z,59.74
2018-08-06T06:02:24.564Z,59.25
2018-08-06T06:03:05.403Z,59.64
2018-08-06T06:03:46.144Z,59.34
2018-08-06T06:04:26.925Z,59.54
2018-08-06T06:05:07.638Z,59.54
2018-08-06T06:05:48.494Z,58.86
2018-08-06T06:06:29.331Z,59.54
2018-08-06T06:07:10.213Z,59.57
2018-08-06T06:07:50.934Z,59.15
2018-08-06T06:08:31.744Z,59.64
2018-08-06T06:09:12.501Z,59.15
2018-08-06T06:09:53.328Z,58.69
2018-08-06T06:10:34.161Z,58.76
2018-08-06T06:11:14.939Z,58.66
2018-08-06T06:11:55.785Z,58.86
2018-08-06T06:12:36.623Z,59.15
2018-08-06T06:13:17.485Z,59.15
2018-08-06T06:13:58.330Z,59.64
2018-08-06T06:14:39.152Z,59.74
2018-08-06T06:15:20.037Z,58.95
2018-08-06T06:16:00.819Z,58.76
2018-08-06T06:16:41.690Z,58.95
2018-08-06T06:17:22.517Z,58.66
2018-08-06T06:18:03.712Z,58.98
2018-08-06T06:18:45.467Z,58.69
2018-08-06T06:19:26.221Z,58.98
2018-08-06T06:20:07.048Z,58.76
2018-08-06T06:20:47.773Z,58.89
2018-08-06T06:21:28.526Z,58.69
2018-08-06T06:22:09.265Z,58.89
2018-08-06T06:22:50.094Z,59.08
2018-08-06T06:23:30.967Z,58.89
2018-08-06T06:24:11.784Z,58.5
2018-08-06T06:24:52.590Z,58.69
2018-08-06T06:25:33.348Z,58.5
2018-08-06T06:26:14.096Z,58.69
2018-08-06T06:26:54.802Z,58.69
2018-08-06T06:27:35.660Z,58.81
2018-08-06T06:28:16.410Z,58.5
2018-08-06T06:28:57.177Z,58.52
2018-08-06T06:29:37.978Z,58.42
2018-08-06T06:30:18.823Z,58.42
2018-08-06T06:30:59.681Z,58.13
2018-08-06T06:31:40.489Z,58.06
2018-08-06T06:32:21.258Z,57.87
2018-08-06T06:33:02.110Z,57.67
2018-08-06T06:33:42.938Z,57.38
2018-08-06T06:34:23.705Z,57.57
2018-08-06T06:35:04.501Z,57.5
2018-08-06T06:35:45.242Z,56.72
2018-08-06T06:36:26.105Z,56.72
2018-08-06T06:37:06.921Z,56.92
2018-08-06T06:37:47.663Z,56.92
2018-08-06T06:38:28.540Z,56.23
2018-08-06T06:39:09.350Z,56.36
2018-08-06T06:39:50.204Z,56.65
2018-08-06T06:40:30.915Z,55.96
2018-08-06T06:41:11.602Z,56.16
2018-08-06T06:41:52.299Z,55.77
2018-08-06T06:42:33.065Z,55.96
2018-08-06T06:43:13.916Z,55.67
2018-08-06T06:43:54.803Z,55.57
2018-08-06T06:44:35.598Z,55.77
2018-08-06T06:45:16.344Z,55.7
2018-08-06T06:45:57.165Z,55.7
2018-08-06T06:46:38.030Z,55.9
2018-08-06T06:47:18.789Z,55.7
2018-08-06T06:47:59.515Z,55.7
2018-08-06T06:48:40.301Z,55.21
2018-08-06T06:49:21.178Z,55.51
2018-08-06T06:50:01.940Z,55.11
2018-08-06T06:50:42.689Z,55.01
2018-08-06T06:51:23.427Z,55.21
2018-08-06T06:52:04.290Z,55.6
2018-08-06T06:52:45.090Z,55.21
2018-08-06T06:53:25.910Z,55.73
2018-08-06T06:54:06.670Z,55.51
2018-08-06T06:54:47.451Z,55.8
2018-08-06T06:55:28.288Z,55.82
2018-08-06T06:56:09.095Z,55.7
2018-08-06T06:56:49.878Z,55.73
2018-08-06T06:57:30.665Z,55.33
2018-08-06T06:58:11.505Z,55.14
2018-08-06T06:58:52.357Z,55.24
2018-08-06T06:59:33.179Z,54.94
2018-08-06T07:00:13.977Z,54.85
2018-08-06T07:00:54.637Z,54.85
2018-08-06T07:01:35.409Z,55.24
2018-08-06T07:02:16.203Z,55.26
2018-08-06T07:02:57.016Z,54.77
2018-08-06T07:03:37.763Z,54.68
2018-08-06T07:04:18.609Z,54.58
2018-08-06T07:04:59.422Z,54.94
2018-08-06T07:05:40.201Z,54.36
2018-08-06T07:06:21.083Z,54.38
2018-08-06T07:07:01.809Z,54.58
2018-08-06T07:07:42.598Z,54.68
2018-08-06T07:08:23.452Z,54.77
2018-08-06T07:09:04.213Z,54.77
2018-08-06T07:09:44.951Z,54.77
2018-08-06T07:10:25.685Z,54.77
2018-08-06T07:11:06.489Z,54.38
2018-08-06T07:11:47.272Z,54.8
2018-08-06T07:12:27.994Z,54.6
2018-08-06T07:13:08.755Z,54.7
2018-08-06T07:13:49.694Z,54.6
2018-08-06T07:14:30.416Z,54.5
2018-08-06T07:15:11.232Z,54.41
2018-08-06T07:15:51.932Z,54.41
2018-08-06T07:16:32.695Z,54.41
2018-08-06T07:17:13.474Z,54.5
2018-08-06T07:17:54.312Z,54.6
2018-08-06T07:18:35.149Z,54.68
2018-08-06T07:19:16.000Z,54.58
2018-08-06T07:19:56.771Z,54.48
2018-08-06T07:20:37.601Z,53.8
2018-08-06T07:21:18.450Z,54.21
2018-08-06T07:21:59.169Z,54.7
2018-08-06T07:22:39.911Z,54.6
2018-08-06T07:23:20.641Z,54.41
2018-08-06T07:24:01.427Z,54.7
2018-08-06T07:24:42.299Z,54.9
2018-08-06T07:25:23.129Z,54.11
2018-08-06T07:26:03.965Z,54.02
2018-08-06T07:26:44.691Z,54.02
2018-08-06T07:27:27.048Z,54.02
2018-08-06T07:28:07.782Z,53.82
2018-08-06T07:28:48.644Z,53.82
2018-08-06T07:29:29.408Z,53.26
2018-08-06T07:30:10.216Z,53.72
2018-08-06T07:30:51.030Z,54.33
2018-08-06T07:31:31.806Z,53.36
2018-08-06T07:32:12.690Z,53.26
2018-08-06T07:32:53.427Z,53.16
2018-08-06T07:33:34.294Z,52.8
2018-08-06T07:34:14.976Z,52.8
2018-08-06T07:34:55.775Z,52.89
2018-08-06T07:35:36.599Z,52.59
2018-08-06T07:36:17.419Z,51.93
2018-08-06T07:36:58.260Z,51.84
2018-08-06T07:37:39.028Z,52.03
2018-08-06T07:38:19.818Z,52.13
2018-08-06T07:39:00.667Z,52.13
2018-08-06T07:39:41.462Z,51.86
2018-08-06T07:40:22.183Z,51.57
2018-08-06T07:41:02.936Z,51.76
2018-08-06T07:41:43.749Z,51.76
2018-08-06T07:42:24.528Z,52.06
2018-08-06T07:43:05.328Z,51.76
2018-08-06T07:43:46.080Z,51.57
2018-08-06T07:44:26.885Z,52.06
2018-08-06T07:45:07.699Z,51.76
2018-08-06T07:45:48.468Z,51.67
2018-08-06T07:46:29.290Z,51.86
2018-08-06T07:47:10.202Z,51.59
2018-08-06T07:47:50.974Z,51.69
2018-08-06T07:48:31.697Z,51.69
2018-08-06T07:49:12.459Z,52.06
2018-08-06T07:49:53.320Z,51.27
2018-08-06T07:50:34.065Z,51.86
2018-08-06T07:51:14.973Z,51.86
2018-08-06T07:51:55.786Z,52.15
2018-08-06T07:52:36.554Z,51.76
2018-08-06T07:53:17.305Z,51.76
2018-08-06T07:53:58.027Z,51.86
2018-08-06T07:54:38.824Z,51.86
2018-08-06T07:55:19.632Z,51.76
2018-08-06T07:56:00.348Z,52.06
2018-08-06T07:56:41.201Z,52.23
2018-08-06T07:57:22.032Z,52.15
2018-08-06T07:58:02.837Z,52.45
2018-08-06T07:58:43.629Z,52.72
2018-08-06T07:59:24.351Z,52.92
2018-08-06T08:00:05.144Z,52.94
2018-08-06T08:00:45.954Z,53.11
2018-08-06T08:01:26.818Z,53.8
2018-08-06T08:02:07.648Z,53.9
2018-08-06T08:02:48.431Z,54.1
2018-08-06T08:03:29.188Z,53.97
2018-08-06T08:04:10.043Z,55.32
2018-08-06T08:04:50.860Z,55.61
2018-08-06T08:05:31.618Z,55.81
2018-08-06T08:06:12.446Z,55.81
2018-08-06T08:06:53.162Z,55.71
2018-08-06T08:07:33.955Z,54.85
2018-08-06T08:08:14.778Z,55.15
2018-08-06T08:08:55.599Z,54.75
2018-08-06T08:09:36.376Z,54.66
2018-08-06T08:10:17.113Z,54.85
2018-08-06T08:10:57.842Z,54.66
2018-08-06T08:11:38.639Z,54.85
2018-08-06T08:12:19.437Z,54.73
2018-08-06T08:13:00.214Z,54.85
2018-08-06T08:13:41.002Z,55.32
2018-08-06T08:14:21.805Z,55.81
2018-08-06T08:15:02.696Z,55.91
2018-08-06T08:15:43.591Z,55.91
2018-08-06T08:16:24.334Z,55.81
2018-08-06T08:17:05.106Z,56.1
2018-08-06T08:17:45.913Z,56.49
2018-08-06T08:18:26.650Z,56.3
2018-08-06T08:19:07.415Z,56.4
2018-08-06T08:19:48.241Z,56.47
2018-08-06T08:20:29.008Z,58.04
2018-08-06T08:21:09.800Z,57.64
2018-08-06T08:21:50.522Z,57.25
2018-08-06T08:22:31.369Z,59.41
2018-08-06T08:23:12.152Z,60.39
2018-08-06T08:23:53.020Z,62.02
2018-08-06T08:24:33.771Z,63.76
2018-08-06T08:25:14.675Z,64.31
2018-08-06T08:25:55.365Z,63.63
2018-08-06T08:26:36.229Z,61.99
2018-08-06T08:27:17.069Z,61.51
2018-08-06T08:27:58.027Z,61.73
2018-08-06T08:28:38.885Z,61.05
2018-08-06T08:29:19.612Z,62.38
2018-08-06T08:30:00.575Z,62.02
2018-08-06T08:30:41.359Z,62.91
2018-08-06T08:31:22.176Z,62.98
2018-08-06T08:32:02.850Z,63.24
2018-08-06T08:32:43.577Z,63.24
2018-08-06T08:33:24.367Z,64.02
2018-08-06T08:34:05.190Z,64.41
2018-08-06T08:34:45.887Z,64.41
2018-08-06T08:35:26.684Z,64.22
2018-08-06T08:36:07.484Z,64.97
2018-08-06T08:36:48.203Z,64.61
2018-08-06T08:37:28.911Z,64.22
2018-08-06T08:38:09.797Z,64.22
2018-08-06T08:38:50.545Z,65
2018-08-06T08:39:31.354Z,64.51
2018-08-06T08:40:12.179Z,64.51
2018-08-06T08:40:53.006Z,64.61
2018-08-06T08:41:33.899Z,63.92
2018-08-06T08:42:14.750Z,63.37
2018-08-06T08:42:55.526Z,63.07
2018-08-06T08:43:36.282Z,62.58
2018-08-06T08:44:17.125Z,63.37
2018-08-06T08:44:57.918Z,63.46
2018-08-06T08:45:38.816Z,63.27
2018-08-06T08:46:19.555Z,63.07
2018-08-06T08:47:00.296Z,63.92
2018-08-06T08:47:41.127Z,64.31
2018-08-06T08:48:21.933Z,64.12